createdAt,value
2017-01-30T00:00:36.067Z,100381
2017-01-30T00:01:36.990Z,100379
2017-01-30T00:02:36.740Z,100382
2017-01-30T00:03:36.680Z,100376
2017-01-30T00:04:36.788Z,100378
2017-01-30T00:05:37.156Z,100372
2017-01-30T00:06:36.861Z,100372
2017-01-30T00:07:36.669Z,100367
2017-01-30T00:08:36.987Z,100365
2017-01-30T00:09:36.529Z,100365
2017-01-30T00:10:37.151Z,100364
2017-01-30T00:11:36.649Z,100364
2017-01-30T00:12:36.712Z,100361
2017-01-30T00:13:36.988Z,100362
2017-01-30T00:14:36.750Z,100364
2017-01-30T00:15:37.372Z,100361
2017-01-30T00:16:36.932Z,100364
2017-01-30T00:17:36.909Z,100359
2017-01-30T00:18:36.973Z,100355
2017-01-30T00:19:38.857Z,100357
2017-01-30T00:20:37.155Z,100355
2017-01-30T00:21:37.229Z,100349
2017-01-30T00:22:37.825Z,100346
2017-01-30T00:23:37.851Z,100351
2017-01-30T00:24:37.361Z,100339
2017-01-30T00:25:38.224Z,100344
2017-01-30T00:26:37.427Z,100344
2017-01-30T00:27:38.020Z,100338
2017-01-30T00:28:38.083Z,100340
2017-01-30T00:29:38.172Z,100336
2017-01-30T00:30:38.240Z,100331
2017-01-30T00:31:38.573Z,100333
2017-01-30T00:32:38.341Z,100330
2017-01-30T00:33:38.368Z,100326
2017-01-30T00:34:38.395Z,100327
2017-01-30T00:35:38.403Z,100327
2017-01-30T00:36:37.955Z,100330
2017-01-30T00:37:38.824Z,100326
2017-01-30T00:38:38.579Z,100321
2017-01-30T00:39:38.620Z,100314
2017-01-30T00:40:39.929Z,100323
2017-01-30T00:41:38.103Z,100320
2017-01-30T00:42:38.169Z,100314
2017-01-30T00:43:38.976Z,100326
2017-01-30T00:44:38.237Z,100319
2017-01-30T00:45:38.299Z,100316
2017-01-30T00:46:38.345Z,100311
2017-01-30T00:47:38.967Z,100316
2017-01-30T00:48:39.029Z,100315
2017-01-30T00:49:39.290Z,100316
2017-01-30T00:50:39.030Z,100315
2017-01-30T00:51:38.488Z,100306
2017-01-30T00:52:38.551Z,100309
2017-01-30T00:53:39.124Z,100307
2017-01-30T00:54:38.646Z,100305
2017-01-30T00:55:38.987Z,100295
2017-01-30T00:56:38.724Z,100308
2017-01-30T00:57:38.735Z,100304
2017-01-30T00:58:39.370Z,100299
2017-01-30T00:59:39.436Z,100306
2017-01-30T01:00:39.471Z,100305
2017-01-30T01:01:39.779Z,100299
2017-01-30T01:02:39.701Z,100302
2017-01-30T01:03:40.226Z,100298
2017-01-30T01:04:39.685Z,100293
2017-01-30T01:05:40.448Z,100298
2017-01-30T01:06:39.247Z,100299
2017-01-30T01:07:40.120Z,100296
2017-01-30T01:08:39.375Z,100292
2017-01-30T01:09:39.897Z,100293
2017-01-30T01:10:39.945Z,100293
2017-01-30T01:11:40.042Z,100287
2017-01-30T01:12:40.051Z,100286
2017-01-30T01:13:40.299Z,100288
2017-01-30T01:14:39.566Z,100285
2017-01-30T01:15:39.598Z,100282
2017-01-30T01:16:40.289Z,100287
2017-01-30T01:17:39.705Z,100283
2017-01-30T01:18:40.252Z,100281
2017-01-30T01:19:40.562Z,100281
2017-01-30T01:20:40.342Z,100275
2017-01-30T01:21:40.382Z,100275
2017-01-30T01:22:39.833Z,100277
2017-01-30T01:23:40.441Z,100274
2017-01-30T01:24:40.516Z,100270
2017-01-30T01:25:40.261Z,100265
2017-01-30T01:26:40.624Z,100269
2017-01-30T01:27:40.638Z,100271
2017-01-30T01:28:40.122Z,100271
2017-01-30T01:29:40.248Z,100271
2017-01-30T01:30:40.171Z,100267
2017-01-30T01:31:40.570Z,100267
2017-01-30T01:32:40.808Z,100265
2017-01-30T01:33:40.333Z,100269
2017-01-30T01:34:40.938Z,100270
2017-01-30T01:35:40.478Z,100266
2017-01-30T01:36:40.544Z,100267
2017-01-30T01:37:41.387Z,100269
2017-01-30T01:38:41.088Z,100266
2017-01-30T01:39:40.587Z,100262
2017-01-30T01:40:41.220Z,100261
2017-01-30T01:41:41.264Z,100265
2017-01-30T01:42:40.821Z,100258
2017-01-30T01:43:41.719Z,100265
2017-01-30T01:44:40.929Z,100257
2017-01-30T01:45:41.532Z,100258
2017-01-30T01:46:41.600Z,100253
2017-01-30T01:47:41.051Z,100254
2017-01-30T01:48:41.082Z,100251
2017-01-30T01:49:41.929Z,100249
2017-01-30T01:50:41.622Z,100249
2017-01-30T01:51:41.621Z,100248
2017-01-30T01:52:41.664Z,100251
2017-01-30T01:53:41.183Z,100245
2017-01-30T01:54:41.720Z,100247
2017-01-30T01:55:41.524Z,100241
2017-01-30T01:56:41.336Z,100241
2017-01-30T01:57:41.395Z,100242
2017-01-30T01:58:42.002Z,100236
2017-01-30T01:59:41.498Z,100241
2017-01-30T02:00:41.574Z,100237
2017-01-30T02:01:42.613Z,100232
2017-01-30T02:02:42.187Z,100235
2017-01-30T02:03:41.630Z,100232
2017-01-30T02:04:41.638Z,100232
2017-01-30T02:05:42.233Z,100232
2017-01-30T02:06:41.753Z,100229
2017-01-30T02:07:42.655Z,100230
2017-01-30T02:08:42.350Z,100225
2017-01-30T02:09:41.848Z,100226
2017-01-30T02:10:41.926Z,100225
2017-01-30T02:11:41.887Z,100213
2017-01-30T02:12:41.972Z,100216
2017-01-30T02:13:42.827Z,100218
2017-01-30T02:14:42.613Z,100210
2017-01-30T02:15:42.637Z,100212
2017-01-30T02:16:42.132Z,100213
2017-01-30T02:17:42.144Z,100208
2017-01-30T02:18:42.764Z,100203
2017-01-30T02:19:43.070Z,100199
2017-01-30T02:20:42.382Z,100204
2017-01-30T02:21:42.450Z,100193
2017-01-30T02:22:43.079Z,100193
2017-01-30T02:23:43.129Z,100197
2017-01-30T02:24:43.199Z,100189
2017-01-30T02:25:43.600Z,100185
2017-01-30T02:26:42.676Z,100181
2017-01-30T02:27:42.803Z,100179
2017-01-30T02:28:43.373Z,100176
2017-01-30T02:29:43.435Z,100169
2017-01-30T02:30:42.906Z,100165
2017-01-30T02:31:43.322Z,100154
2017-01-30T02:32:43.061Z,100156
2017-01-30T02:33:43.602Z,100155
2017-01-30T02:34:43.184Z,100156
2017-01-30T02:35:43.772Z,100157
2017-01-30T02:36:43.836Z,100151
2017-01-30T02:37:44.040Z,100148
2017-01-30T02:38:43.971Z,100147
2017-01-30T02:39:43.957Z,100137
2017-01-30T02:40:44.051Z,100140
2017-01-30T02:41:43.548Z,100136
2017-01-30T02:42:43.686Z,100134
2017-01-30T02:43:43.916Z,100130
2017-01-30T02:44:43.636Z,100136
2017-01-30T02:45:43.686Z,100132
2017-01-30T02:46:43.744Z,100126
2017-01-30T02:47:44.360Z,100128
2017-01-30T02:48:43.918Z,100127
2017-01-30T02:49:45.339Z,100115
2017-01-30T02:50:44.591Z,100118
2017-01-30T02:51:44.626Z,100111
2017-01-30T02:52:44.050Z,100104
2017-01-30T02:53:44.131Z,100107
2017-01-30T02:54:44.660Z,100103
2017-01-30T02:55:44.568Z,100095
2017-01-30T02:56:44.847Z,100096
2017-01-30T02:57:45.657Z,100091
2017-01-30T02:58:44.913Z,100091
2017-01-30T02:59:44.975Z,100085
2017-01-30T03:00:44.453Z,100081
2017-01-30T03:01:45.358Z,100083
2017-01-30T03:02:44.503Z,100085
2017-01-30T03:03:45.251Z,100083
2017-01-30T03:04:45.291Z,100080
2017-01-30T03:05:45.271Z,100075
2017-01-30T03:06:45.345Z,100076
2017-01-30T03:07:45.654Z,100075
2017-01-30T03:08:44.837Z,100067
2017-01-30T03:09:45.483Z,100068
2017-01-30T03:10:45.012Z,100058
2017-01-30T03:11:45.681Z,100054
2017-01-30T03:12:45.128Z,100046
2017-01-30T03:13:45.423Z,100052
2017-01-30T03:14:45.753Z,100053
2017-01-30T03:15:45.242Z,100052
2017-01-30T03:16:45.803Z,100049
2017-01-30T03:17:46.455Z,100045
2017-01-30T03:18:45.975Z,100037
2017-01-30T03:19:45.719Z,100032
2017-01-30T03:20:46.007Z,100034
2017-01-30T03:21:46.002Z,100034
2017-01-30T03:22:45.577Z,100032
2017-01-30T03:23:45.585Z,100026
2017-01-30T03:24:46.156Z,100027
2017-01-30T03:25:46.529Z,100025
2017-01-30T03:26:45.752Z,100015
2017-01-30T03:27:45.679Z,100012
2017-01-30T03:28:46.323Z,100009
2017-01-30T03:29:46.350Z,100015
2017-01-30T03:30:45.841Z,100012
2017-01-30T03:31:46.729Z,100003
2017-01-30T03:32:47.320Z,100000
2017-01-30T03:33:46.585Z,100009
2017-01-30T03:34:46.153Z,99998
2017-01-30T03:35:46.624Z,100005
2017-01-30T03:36:46.630Z,99997
2017-01-30T03:37:46.495Z,99995
2017-01-30T03:38:46.759Z,99998
2017-01-30T03:39:46.250Z,99990
2017-01-30T03:40:46.293Z,99988
2017-01-30T03:41:46.894Z,99997
2017-01-30T03:42:46.954Z,99991
2017-01-30T03:43:46.624Z,99992
2017-01-30T03:44:46.425Z,99992
2017-01-30T03:45:46.433Z,99990
2017-01-30T03:46:46.462Z,99987
2017-01-30T03:47:46.581Z,99982
2017-01-30T03:48:47.066Z,99976
2017-01-30T03:49:47.421Z,99986
2017-01-30T03:50:46.640Z,99985
2017-01-30T03:51:46.699Z,99986
2017-01-30T03:52:47.271Z,99970
2017-01-30T03:53:47.348Z,99982
2017-01-30T03:54:47.386Z,99979
2017-01-30T03:55:47.194Z,99973
2017-01-30T03:56:46.943Z,99973
2017-01-30T03:57:46.977Z,99970
2017-01-30T03:58:47.602Z,99969
2017-01-30T03:59:47.655Z,99962
2017-01-30T04:00:47.647Z,99965
2017-01-30T04:01:47.461Z,99958
2017-01-30T04:02:47.249Z,99961
2017-01-30T04:03:47.252Z,99955
2017-01-30T04:04:47.369Z,99953
2017-01-30T04:05:47.949Z,99945
2017-01-30T04:06:47.445Z,99952
2017-01-30T04:07:48.364Z,99947
2017-01-30T04:08:48.067Z,99940
2017-01-30T04:09:48.105Z,99944
2017-01-30T04:10:47.650Z,99945
2017-01-30T04:11:48.228Z,99936
2017-01-30T04:12:48.333Z,99940
2017-01-30T04:13:48.113Z,99935
2017-01-30T04:14:47.847Z,99930
2017-01-30T04:15:47.912Z,99925
2017-01-30T04:16:47.972Z,99928
2017-01-30T04:17:48.546Z,99928
2017-01-30T04:18:48.056Z,99920
2017-01-30T04:19:48.914Z,99916
2017-01-30T04:20:48.143Z,99922
2017-01-30T04:21:48.192Z,99909
2017-01-30T04:22:48.783Z,99914
2017-01-30T04:23:48.756Z,99912
2017-01-30T04:24:48.861Z,99908
2017-01-30T04:25:49.260Z,99902
2017-01-30T04:26:49.572Z,99897
2017-01-30T04:27:48.359Z,99901
2017-01-30T04:28:49.587Z,99897
2017-01-30T04:29:48.915Z,99889
2017-01-30T04:30:48.928Z,99892
2017-01-30T04:31:49.236Z,99885
2017-01-30T04:32:48.501Z,99891
2017-01-30T04:33:49.117Z,99880
2017-01-30T04:34:48.730Z,99869
2017-01-30T04:35:48.766Z,99871
2017-01-30T04:36:49.401Z,99870
2017-01-30T04:37:49.143Z,99875
2017-01-30T04:38:48.870Z,99868
2017-01-30T04:39:49.549Z,99872
2017-01-30T04:40:48.928Z,99864
2017-01-30T04:41:49.544Z,99875
2017-01-30T04:42:49.031Z,99874
2017-01-30T04:43:49.842Z,99876
2017-01-30T04:44:49.597Z,99873
2017-01-30T04:45:49.603Z,99869
2017-01-30T04:46:49.129Z,99868
2017-01-30T04:47:49.664Z,99869
2017-01-30T04:48:49.186Z,99866
2017-01-30T04:49:49.590Z,99858
2017-01-30T04:50:49.299Z,99859
2017-01-30T04:51:49.361Z,99857
2017-01-30T04:52:49.964Z,99856
2017-01-30T04:53:50.007Z,99852
2017-01-30T04:54:50.072Z,99846
2017-01-30T04:55:50.363Z,99851
2017-01-30T04:56:49.723Z,99847
2017-01-30T04:57:50.210Z,99843
2017-01-30T04:58:49.722Z,99852
2017-01-30T04:59:50.344Z,99849
2017-01-30T05:00:50.282Z,99842
2017-01-30T05:01:50.632Z,99837
2017-01-30T05:02:49.790Z,99836
2017-01-30T05:03:49.838Z,99842
2017-01-30T05:04:49.866Z,99832
2017-01-30T05:05:50.420Z,99841
2017-01-30T05:06:50.549Z,99842
2017-01-30T05:07:50.834Z,99834
2017-01-30T05:08:50.115Z,99829
2017-01-30T05:09:50.731Z,99829
2017-01-30T05:10:50.766Z,99827
2017-01-30T05:11:50.767Z,99828
2017-01-30T05:12:50.286Z,99823
2017-01-30T05:13:51.176Z,99825
2017-01-30T05:14:50.934Z,99817
2017-01-30T05:15:50.931Z,99812
2017-01-30T05:16:50.431Z,99805
2017-01-30T05:17:50.989Z,99808
2017-01-30T05:18:50.495Z,99814
2017-01-30T05:19:51.356Z,99805
2017-01-30T05:20:50.531Z,99809
2017-01-30T05:21:51.291Z,99810
2017-01-30T05:22:51.274Z,99814
2017-01-30T05:23:50.770Z,99808
2017-01-30T05:24:50.799Z,99812
2017-01-30T05:25:51.730Z,99805
2017-01-30T05:26:51.514Z,99802
2017-01-30T05:27:50.982Z,99806
2017-01-30T05:28:51.590Z,99802
2017-01-30T05:29:51.603Z,99797
2017-01-30T05:30:51.675Z,99788
2017-01-30T05:31:51.972Z,99788
2017-01-30T05:32:51.219Z,99781
2017-01-30T05:33:51.278Z,99777
2017-01-30T05:34:51.301Z,99780
2017-01-30T05:35:51.397Z,99772
2017-01-30T05:36:51.523Z,99786
2017-01-30T05:37:51.910Z,99789
2017-01-30T05:38:51.666Z,99782
2017-01-30T05:39:51.689Z,99780
2017-01-30T05:40:51.701Z,99781
2017-01-30T05:41:51.732Z,99781
2017-01-30T05:42:51.814Z,99780
2017-01-30T05:43:52.087Z,99778
2017-01-30T05:44:51.875Z,99777
2017-01-30T05:45:51.990Z,99772
2017-01-30T05:46:52.556Z,99767
2017-01-30T05:47:52.614Z,99773
2017-01-30T05:48:52.196Z,99774
2017-01-30T05:49:53.029Z,99771
2017-01-30T05:50:52.800Z,99764
2017-01-30T05:51:52.757Z,99755
2017-01-30T05:52:52.351Z,99758
2017-01-30T05:53:52.393Z,99762
2017-01-30T05:54:52.458Z,99754
2017-01-30T05:55:53.238Z,99755
2017-01-30T05:56:53.076Z,99757
2017-01-30T05:57:52.580Z,99758
2017-01-30T05:58:52.628Z,99763
2017-01-30T05:59:52.649Z,99763
2017-01-30T06:00:53.265Z,99760
2017-01-30T06:01:53.520Z,99758
2017-01-30T06:02:53.277Z,99765
2017-01-30T06:03:52.895Z,99764
2017-01-30T06:04:53.434Z,99758
2017-01-30T06:05:53.452Z,99764
2017-01-30T06:06:53.580Z,99763
2017-01-30T06:07:54.575Z,99761
2017-01-30T06:08:53.018Z,99760
2017-01-30T06:09:53.587Z,99757
2017-01-30T06:10:53.105Z,99750
2017-01-30T06:11:53.123Z,99752
2017-01-30T06:12:53.156Z,99756
2017-01-30T06:13:54.024Z,99750
2017-01-30T06:14:53.736Z,99743
2017-01-30T06:15:53.816Z,99752
2017-01-30T06:16:53.313Z,99756
2017-01-30T06:17:54.579Z,99753
2017-01-30T06:18:54.681Z,99748
2017-01-30T06:19:54.301Z,99739
2017-01-30T06:20:53.500Z,99746
2017-01-30T06:21:54.094Z,99745
2017-01-30T06:22:54.173Z,99744
2017-01-30T06:23:53.674Z,99746
2017-01-30T06:24:54.304Z,99749
2017-01-30T06:25:55.476Z,99752
2017-01-30T06:26:54.441Z,99747
2017-01-30T06:27:54.512Z,99748
2017-01-30T06:28:53.967Z,99753
2017-01-30T06:29:54.530Z,99753
2017-01-30T06:30:54.058Z,99748
2017-01-30T06:31:54.160Z,99749
2017-01-30T06:32:54.713Z,99752
2017-01-30T06:33:54.790Z,99746
2017-01-30T06:34:54.318Z,99751
2017-01-30T06:35:54.919Z,99749
2017-01-30T06:36:54.939Z,99747
2017-01-30T06:37:54.473Z,99737
2017-01-30T06:38:55.341Z,99744
2017-01-30T06:39:55.330Z,99738
2017-01-30T06:40:54.906Z,99744
2017-01-30T06:41:55.351Z,99743
2017-01-30T06:42:55.402Z,99743
2017-01-30T06:43:54.924Z,99745
2017-01-30T06:44:56.311Z,99747
2017-01-30T06:45:55.103Z,99751
2017-01-30T06:46:55.654Z,99740
2017-01-30T06:47:56.046Z,99746
2017-01-30T06:48:55.732Z,99745
2017-01-30T06:49:57.406Z,99745
2017-01-30T06:50:55.815Z,99749
2017-01-30T06:52:57.764Z,99737
2017-01-30T06:53:56.782Z,99751
2017-01-30T06:54:57.251Z,99750
2017-01-30T06:55:56.900Z,99753
2017-01-30T06:56:56.387Z,99745
2017-01-30T06:57:56.468Z,99748
2017-01-30T06:58:55.992Z,99745
2017-01-30T06:59:56.529Z,99749
2017-01-30T07:01:02.269Z,99748
2017-01-30T07:01:56.144Z,99754
2017-01-30T07:02:59.217Z,99749
2017-01-30T07:03:57.675Z,99741
2017-01-30T07:04:58.752Z,99751
2017-01-30T07:05:57.577Z,99748
2017-01-30T07:06:58.432Z,99746
2017-01-30T07:07:57.852Z,99742
2017-01-30T07:08:58.751Z,99744
2017-01-30T07:09:56.980Z,99756
2017-01-30T07:10:58.565Z,99758
2017-01-30T07:12:01.185Z,99750
2017-01-30T07:13:00.005Z,99751
2017-01-30T07:13:58.878Z,99750
2017-01-30T07:14:57.524Z,99747
2017-01-30T07:16:00.211Z,99742
2017-01-30T07:16:58.302Z,99749
2017-01-30T07:17:57.481Z,99751
2017-01-30T07:18:59.555Z,99753
2017-01-30T07:19:59.805Z,99749
2017-01-30T07:20:58.044Z,99745
2017-01-30T07:21:59.023Z,99744
2017-01-30T07:22:58.998Z,99742
2017-01-30T07:23:58.070Z,99740
2017-01-30T07:24:57.410Z,99741
2017-01-30T07:25:58.746Z,99738
2017-01-30T07:26:57.539Z,99743
2017-01-30T07:27:58.763Z,99748
2017-01-30T07:28:58.308Z,99747
2017-01-30T07:29:58.819Z,99737
2017-01-30T07:30:57.721Z,99738
2017-01-30T07:31:58.978Z,99737
2017-01-30T07:32:57.862Z,99736
2017-01-30T07:33:57.994Z,99736
2017-01-30T07:35:00.152Z,99746
2017-01-30T07:35:59.297Z,99738
2017-01-30T07:36:58.545Z,99736
2017-01-30T07:38:00.114Z,99739
2017-01-30T07:38:59.047Z,99735
2017-01-30T07:40:59.477Z,99736
2017-01-30T07:41:59.870Z,99733
2017-01-30T07:42:58.786Z,99735
2017-01-30T07:43:59.697Z,99738
2017-01-30T07:45:01.588Z,99737
2017-01-30T07:45:59.032Z,99732
2017-01-30T07:47:01.448Z,99732
2017-01-30T07:47:58.917Z,99729
2017-01-30T07:48:59.094Z,99731
2017-01-30T07:49:59.198Z,99728
2017-01-30T07:50:59.508Z,99731
2017-01-30T07:51:59.263Z,99731
2017-01-30T07:52:58.695Z,99728
2017-01-30T07:54:00.538Z,99723
2017-01-30T07:55:01.306Z,99728
2017-01-30T07:55:59.700Z,99727
2017-01-30T07:57:01.604Z,99728
2017-01-30T07:57:59.894Z,99724
2017-01-30T07:58:59.090Z,99725
2017-01-30T08:00:00.479Z,99724
2017-01-30T08:01:01.220Z,99722
2017-01-30T08:01:59.322Z,99719
2017-01-30T08:03:00.418Z,99723
2017-01-30T08:04:05.604Z,99723
2017-01-30T08:05:01.796Z,99720
2017-01-30T08:06:01.275Z,99713
2017-01-30T08:07:01.424Z,99720
2017-01-30T08:08:01.191Z,99718
2017-01-30T08:09:00.472Z,99719
2017-01-30T08:10:00.453Z,99715
2017-01-30T08:11:02.439Z,99719
2017-01-30T08:12:00.674Z,99709
2017-01-30T08:13:01.933Z,99718
2017-01-30T08:14:03.268Z,99726
2017-01-30T08:15:01.002Z,99712
2017-01-30T08:16:01.054Z,99711
2017-01-30T08:17:00.424Z,99702
2017-01-30T08:18:01.006Z,99710
2017-01-30T08:19:01.646Z,99708
2017-01-30T08:20:01.097Z,99714
2017-01-30T08:21:01.844Z,99708
2017-01-30T08:22:03.243Z,99711
2017-01-30T08:23:03.628Z,99710
2017-01-30T08:24:01.874Z,99710
2017-01-30T08:25:03.600Z,99717
2017-01-30T08:26:01.424Z,99718
2017-01-30T08:27:02.202Z,99708
2017-01-30T08:28:01.540Z,99713
2017-01-30T08:29:06.022Z,99711
2017-01-30T08:30:02.247Z,99730
2017-01-30T08:31:01.557Z,99715
2017-01-30T08:32:01.697Z,99707
2017-01-30T08:33:03.084Z,99707
2017-01-30T08:34:03.622Z,99716
2017-01-30T08:35:02.604Z,99705
2017-01-30T08:36:03.713Z,99712
2017-01-30T08:37:03.635Z,99711
2017-01-30T08:38:02.479Z,99716
2017-01-30T08:39:03.420Z,99713
2017-01-30T08:40:02.828Z,99714
2017-01-30T08:41:03.479Z,99706
2017-01-30T08:42:02.815Z,99712
2017-01-30T08:43:02.281Z,99704
2017-01-30T08:44:02.344Z,99707
2017-01-30T08:47:03.825Z,99710
2017-01-30T08:48:02.781Z,99712
2017-01-30T08:49:03.043Z,99717
2017-01-30T08:50:02.156Z,99710
2017-01-30T08:51:02.277Z,99712
2017-01-30T08:52:03.705Z,99704
2017-01-30T08:53:03.034Z,99707
2017-01-30T08:54:04.599Z,99716
2017-01-30T08:55:02.948Z,99711
2017-01-30T08:56:03.771Z,99709
2017-01-30T08:57:03.558Z,99709
2017-01-30T08:58:04.730Z,99706
2017-01-30T08:59:05.101Z,99702
2017-01-30T09:01:06.696Z,99703
2017-01-30T09:02:04.806Z,99713
2017-01-30T09:03:05.419Z,99709
2017-01-30T09:04:06.237Z,99709
2017-01-30T09:05:05.673Z,99707
2017-01-30T09:06:06.322Z,99712
2017-01-30T09:07:05.288Z,99705
2017-01-30T09:08:07.196Z,99698
2017-01-30T09:09:04.947Z,99716
2017-01-30T09:10:05.569Z,99701
2017-01-30T09:11:04.650Z,99704
2017-01-30T09:12:03.602Z,99707
2017-01-30T09:13:04.080Z,99701
2017-01-30T09:14:04.240Z,99699
2017-01-30T09:15:04.466Z,99692
2017-01-30T09:16:05.906Z,99699
2017-01-30T09:17:03.735Z,99699
2017-01-30T09:18:04.467Z,99695
2017-01-30T09:19:07.765Z,99697
2017-01-30T09:20:07.375Z,99692
2017-01-30T09:21:06.366Z,99694
2017-01-30T09:22:07.267Z,99695
2017-01-30T09:23:05.660Z,99697
2017-01-30T09:24:07.838Z,99693
2017-01-30T09:25:04.706Z,99689
2017-01-30T09:26:06.223Z,99686
2017-01-30T09:27:04.577Z,99682
2017-01-30T09:28:08.423Z,99690
2017-01-30T09:29:04.112Z,99679
2017-01-30T09:30:08.369Z,99683
2017-01-30T09:31:06.687Z,99678
2017-01-30T09:32:06.355Z,99683
2017-01-30T09:33:05.579Z,99675
2017-01-30T09:34:05.055Z,99681
2017-01-30T09:35:05.605Z,99681
2017-01-30T09:36:06.070Z,99688
2017-01-30T09:37:05.867Z,99678
2017-01-30T09:38:06.117Z,99678
2017-01-30T09:39:05.192Z,99677
2017-01-30T09:40:06.137Z,99686
2017-01-30T09:41:05.592Z,99684
2017-01-30T09:42:08.474Z,99672
2017-01-30T09:43:06.451Z,99677
2017-01-30T09:44:05.335Z,99667
2017-01-30T09:45:07.874Z,99672
2017-01-30T09:46:07.964Z,99670
2017-01-30T09:47:07.292Z,99667
2017-01-30T09:48:05.791Z,99664
2017-01-30T09:49:07.615Z,99671
2017-01-30T09:50:07.836Z,99665
2017-01-30T09:51:07.821Z,99671
2017-01-30T09:52:05.275Z,99671
2017-01-30T09:53:07.707Z,99676
2017-01-30T09:54:05.404Z,99672
2017-01-30T10:02:17.023Z,99677
2017-01-30T10:03:17.671Z,99682
2017-01-30T10:04:17.784Z,99700
2017-01-30T10:05:16.516Z,99701
2017-01-30T10:06:21.199Z,99690
2017-01-30T10:07:19.117Z,99704
2017-01-30T10:08:16.897Z,99688
2017-01-30T10:09:17.696Z,99689
2017-01-30T10:10:16.642Z,99685
2017-01-30T10:11:17.249Z,99685
2017-01-30T10:12:16.702Z,99693
2017-01-30T10:13:16.861Z,99683
2017-01-30T10:14:16.833Z,99663
2017-01-30T10:15:17.430Z,99663
2017-01-30T10:16:16.985Z,99668
2017-01-30T10:17:17.344Z,99658
2017-01-30T10:18:17.667Z,99661
2017-01-30T10:19:17.083Z,99668
2017-01-30T10:20:17.722Z,99669
2017-01-30T10:21:17.861Z,99665
2017-01-30T10:22:17.903Z,99667
2017-01-30T10:23:17.959Z,99662
2017-01-30T10:24:17.991Z,99661
2017-01-30T10:25:18.216Z,99661
2017-01-30T10:26:18.087Z,99653
2017-01-30T10:27:18.129Z,99659
2017-01-30T10:28:17.648Z,99656
2017-01-30T10:29:18.173Z,99648
2017-01-30T10:30:17.677Z,99645
2017-01-30T10:31:17.698Z,99653
2017-01-30T10:32:17.754Z,99655
2017-01-30T10:33:17.819Z,99658
2017-01-30T10:34:18.448Z,99654
2017-01-30T10:35:18.000Z,99649
2017-01-30T10:36:19.171Z,99661
2017-01-30T10:37:18.585Z,99645
2017-01-30T10:38:18.079Z,99647
2017-01-30T10:39:18.971Z,99644
2017-01-30T10:40:18.795Z,99640
2017-01-30T10:41:18.903Z,99649
2017-01-30T10:42:18.321Z,99648
2017-01-30T10:43:18.444Z,99640
2017-01-30T10:44:18.563Z,99660
2017-01-30T10:45:19.036Z,99653
2017-01-30T10:46:19.778Z,99643
2017-01-30T10:47:18.631Z,99642
2017-01-30T10:48:19.188Z,99644
2017-01-30T10:49:19.312Z,99646
2017-01-30T10:50:18.729Z,99636
2017-01-30T10:51:18.783Z,99655
2017-01-30T10:52:18.850Z,99645
2017-01-30T10:53:18.867Z,99636
2017-01-30T10:54:20.071Z,99632
2017-01-30T10:55:19.601Z,99631
2017-01-30T10:56:19.620Z,99629
2017-01-30T10:57:19.081Z,99632
2017-01-30T10:58:19.645Z,99624
2017-01-30T10:59:19.758Z,99626
2017-01-30T11:00:19.257Z,99623
2017-01-30T11:01:19.406Z,99625
2017-01-30T11:02:19.229Z,99627
2017-01-30T11:03:19.307Z,99623
2017-01-30T11:04:19.939Z,99624
2017-01-30T11:05:19.957Z,99620
2017-01-30T11:06:20.007Z,99618
2017-01-30T11:07:20.097Z,99616
2017-01-30T11:08:20.177Z,99629
2017-01-30T11:09:20.208Z,99624
2017-01-30T11:10:19.707Z,99621
2017-01-30T11:11:20.306Z,99617
2017-01-30T11:12:20.340Z,99618
2017-01-30T11:13:19.823Z,99611
2017-01-30T11:14:20.382Z,99608
2017-01-30T11:15:21.081Z,99608
2017-01-30T11:16:21.957Z,99616
2017-01-30T11:17:19.982Z,99614
2017-01-30T11:18:20.043Z,99616
2017-01-30T11:19:20.664Z,99609
2017-01-30T11:20:20.179Z,99612
2017-01-30T11:21:20.192Z,99614
2017-01-30T11:22:21.420Z,99623
2017-01-30T11:23:20.817Z,99608
2017-01-30T11:24:20.883Z,99616
2017-01-30T11:25:20.437Z,99612
2017-01-30T11:26:20.476Z,99616
2017-01-30T11:27:20.557Z,99620
2017-01-30T11:28:21.275Z,99621
2017-01-30T11:29:20.712Z,99607
2017-01-30T11:30:21.281Z,99614
2017-01-30T11:31:20.744Z,99614
2017-01-30T11:32:21.491Z,99610
2017-01-30T11:33:21.324Z,99608
2017-01-30T11:34:20.840Z,99609
2017-01-30T11:35:20.916Z,99598
2017-01-30T11:36:21.540Z,99608
2017-01-30T11:37:21.133Z,99610
2017-01-30T11:38:21.069Z,99605
2017-01-30T11:39:21.153Z,99603
2017-01-30T11:40:21.218Z,99610
2017-01-30T11:41:21.839Z,99606
2017-01-30T11:42:22.622Z,99608
2017-01-30T11:43:21.355Z,99606
2017-01-30T11:44:21.394Z,99601
2017-01-30T11:45:21.406Z,99605
2017-01-30T11:46:22.067Z,99619
2017-01-30T11:47:23.235Z,99614
2017-01-30T11:48:21.553Z,99610
2017-01-30T11:49:22.105Z,99610
2017-01-30T11:50:21.653Z,99619
2017-01-30T11:51:21.651Z,99612
2017-01-30T11:52:22.361Z,99609
2017-01-30T11:53:22.364Z,99611
2017-01-30T11:54:21.913Z,99613
2017-01-30T11:55:21.911Z,99612
2017-01-30T11:56:23.586Z,99610
2017-01-30T11:57:22.069Z,99610
2017-01-30T11:58:22.137Z,99605
2017-01-30T11:59:22.624Z,99609
2017-01-30T12:00:22.140Z,99608
2017-01-30T12:01:22.946Z,99605
2017-01-30T12:02:23.869Z,99608
2017-01-30T12:03:23.598Z,99607
2017-01-30T12:04:22.914Z,99604
2017-01-30T12:05:23.000Z,99609
2017-01-30T12:06:22.600Z,99608
2017-01-30T12:07:22.668Z,99605
2017-01-30T12:08:24.474Z,99603
2017-01-30T12:09:23.397Z,99603
2017-01-30T12:10:23.394Z,99608
2017-01-30T12:11:23.490Z,99609
2017-01-30T12:12:23.687Z,99608
2017-01-30T12:13:23.467Z,99609
2017-01-30T12:14:23.522Z,99602
2017-01-30T12:15:23.886Z,99605
2017-01-30T12:16:23.611Z,99601
2017-01-30T12:17:23.714Z,99597
2017-01-30T12:18:23.678Z,99594
2017-01-30T12:19:23.302Z,99595
2017-01-30T12:20:24.470Z,99590
2017-01-30T12:21:23.472Z,99593
2017-01-30T12:22:24.019Z,99594
2017-01-30T12:23:25.868Z,99593
2017-01-30T12:24:24.285Z,99598
2017-01-30T12:25:25.577Z,99588
2017-01-30T12:26:24.120Z,99590
2017-01-30T12:27:24.228Z,99588
2017-01-30T12:28:27.210Z,99586
2017-01-30T12:29:27.209Z,99590
2017-01-30T12:30:25.227Z,99584
2017-01-30T12:31:23.899Z,99583
2017-01-30T12:32:26.503Z,99586
2017-01-30T12:33:24.562Z,99582
2017-01-30T12:34:26.624Z,99584
2017-01-30T12:35:24.690Z,99588
2017-01-30T12:36:25.175Z,99584
2017-01-30T12:37:28.750Z,99579
2017-01-30T12:38:31.753Z,99585
2017-01-30T12:39:25.489Z,99578
2017-01-30T12:40:26.570Z,99579
2017-01-30T12:41:25.554Z,99578
2017-01-30T12:42:25.781Z,99577
2017-01-30T12:43:29.169Z,99581
2017-01-30T12:44:29.674Z,99577
2017-01-30T12:45:27.353Z,99578
2017-01-30T12:46:30.756Z,99581
2017-01-30T12:47:31.195Z,99573
2017-01-30T12:48:31.160Z,99579
2017-01-30T12:49:29.882Z,99577
2017-01-30T12:53:32.776Z,99571
2017-01-30T12:54:29.914Z,99569
2017-01-30T12:56:26.383Z,99564
2017-01-30T12:57:30.290Z,99567
2017-01-30T12:58:30.862Z,99567
2017-01-30T12:59:32.916Z,99563
2017-01-30T13:00:31.853Z,99561
2017-01-30T13:01:29.910Z,99565
2017-01-30T13:02:30.130Z,99563